createdAt,value
2018-09-14T00:03:09.071Z,9.70
2018-09-14T00:05:38.150Z,9.70
2018-09-14T00:08:08.396Z,9.70
2018-09-14T00:10:37.084Z,9.80
2018-09-14T00:15:53.292Z,9.80
2018-09-14T00:18:41.938Z,9.90
2018-09-14T00:21:12.553Z,9.90
2018-09-14T00:23:42.285Z,9.90
2018-09-14T00:28:56.865Z,9.80
2018-09-14T00:31:25.955Z,9.70
2018-09-14T00:33:55.425Z,9.60
2018-09-14T00:36:33.122Z,9.50
2018-09-14T00:39:04.100Z,9.50
2018-09-14T00:41:32.877Z,9.40
2018-09-14T00:44:01.479Z,9.40
2018-09-14T00:46:30.198Z,9.40
2018-09-14T00:48:58.858Z,9.40
2018-09-14T00:51:27.320Z,9.20
2018-09-14T00:53:55.829Z,9.10
2018-09-14T00:56:24.627Z,9.10
2018-09-14T00:58:54.402Z,9.00
2018-09-14T01:01:22.766Z,8.80
2018-09-14T01:03:50.996Z,8.80
2018-09-14T01:06:19.583Z,8.70
2018-09-14T01:08:48.666Z,8.60
2018-09-14T01:14:12.631Z,8.30
2018-09-14T01:16:41.018Z,8.20
2018-09-14T01:19:09.434Z,8.10
2018-09-14T01:21:37.578Z,8.00
2018-09-14T01:24:05.916Z,8.00
2018-09-14T01:26:33.865Z,7.90
2018-09-14T01:29:01.819Z,7.90
2018-09-14T01:31:29.937Z,7.90
2018-09-14T01:33:58.501Z,8.00
2018-09-14T01:36:27.046Z,8.20
2018-09-14T01:38:55.371Z,8.30
2018-09-14T01:41:23.598Z,8.40
2018-09-14T01:43:51.823Z,8.40
2018-09-14T01:46:20.210Z,8.50
2018-09-14T01:48:48.285Z,8.50
2018-09-14T01:51:16.902Z,8.70
2018-09-14T01:53:45.359Z,8.80
2018-09-14T01:56:14.457Z,8.80
2018-09-14T01:58:44.374Z,8.90
2018-09-14T02:01:12.873Z,8.90
2018-09-14T02:03:42.064Z,8.90
2018-09-14T02:06:10.751Z,9.00
2018-09-14T02:08:38.622Z,9.10
2018-09-14T02:11:06.846Z,9.00
2018-09-14T02:13:34.780Z,9.00
2018-09-14T02:16:03.157Z,9.00
2018-09-14T02:18:31.846Z,9.00
2018-09-14T02:21:00.331Z,9.00
2018-09-14T02:26:27.895Z,9.10
2018-09-14T02:28:56.156Z,9.20
2018-09-14T02:31:24.385Z,9.20
2018-09-14T02:33:52.535Z,9.20
2018-09-14T02:36:20.610Z,9.10
2018-09-14T02:38:49.172Z,9.10
2018-09-14T02:41:17.233Z,9.00
2018-09-14T02:43:45.380Z,8.90
2018-09-14T02:46:13.427Z,8.80
2018-09-14T02:48:41.640Z,8.70
2018-09-14T02:51:10.292Z,8.60
2018-09-14T02:53:38.369Z,8.50
2018-09-14T02:56:06.468Z,8.50
2018-09-14T02:58:34.487Z,8.40
2018-09-14T03:01:02.318Z,8.30
2018-09-14T03:03:30.391Z,8.20
2018-09-14T03:05:58.747Z,8.00
2018-09-14T03:08:26.752Z,7.90
2018-09-14T03:10:55.771Z,7.80
2018-09-14T03:13:23.888Z,7.70
2018-09-14T03:15:52.101Z,7.70
2018-09-14T03:18:19.811Z,7.60
2018-09-14T03:20:48.014Z,7.50
2018-09-14T03:23:15.962Z,7.40
2018-09-14T03:25:43.965Z,7.50
2018-09-14T03:28:11.944Z,7.60
2018-09-14T03:30:40.079Z,7.70
2018-09-14T03:33:08.500Z,7.60
2018-09-14T03:35:37.267Z,7.60
2018-09-14T03:38:05.575Z,7.70
2018-09-14T03:40:33.336Z,7.90
2018-09-14T03:43:01.417Z,8.00
2018-09-14T03:45:29.364Z,8.20
2018-09-14T03:47:57.465Z,8.30
2018-09-14T03:50:25.601Z,8.40
2018-09-14T03:52:53.812Z,8.50
2018-09-14T03:55:21.897Z,8.50
2018-09-14T03:57:50.384Z,8.60
2018-09-14T04:00:18.331Z,8.70
2018-09-14T04:02:47.044Z,8.70
2018-09-14T04:05:16.876Z,8.70
2018-09-14T04:07:45.320Z,8.70
2018-09-14T04:10:13.557Z,8.70
2018-09-14T04:12:41.697Z,8.70
2018-09-14T04:15:09.675Z,8.80
2018-09-14T04:17:38.204Z,8.90
2018-09-14T04:20:11.434Z,9.00
2018-09-14T04:22:41.372Z,9.00
2018-09-14T04:28:02.493Z,9.00
2018-09-14T04:30:33.537Z,9.00
2018-09-14T04:33:01.977Z,9.00
2018-09-14T04:35:30.917Z,9.00
2018-09-14T04:37:59.453Z,9.00
2018-09-14T04:40:27.713Z,8.90
2018-09-14T04:42:55.830Z,8.90
2018-09-14T04:45:24.063Z,8.80
2018-09-14T04:47:52.232Z,8.70
2018-09-14T04:50:20.274Z,8.60
2018-09-14T04:52:49.012Z,8.50
2018-09-14T04:55:16.458Z,8.50
2018-09-14T04:57:43.989Z,8.50
2018-09-14T05:00:11.513Z,8.50
2018-09-14T05:02:38.960Z,8.50
2018-09-14T05:05:06.536Z,8.40
2018-09-14T05:07:34.042Z,8.50
2018-09-14T05:10:01.625Z,8.60
2018-09-14T05:12:29.293Z,8.60
2018-09-14T05:14:56.759Z,8.60
2018-09-14T05:17:24.254Z,8.60
2018-09-14T05:19:51.711Z,8.60
2018-09-14T05:22:19.173Z,8.70
2018-09-14T05:24:46.673Z,8.70
2018-09-14T05:27:14.804Z,8.80
2018-09-14T05:29:42.430Z,8.80
2018-09-14T05:32:12.575Z,8.90
2018-09-14T05:34:40.600Z,9.00
2018-09-14T05:37:09.841Z,9.20
2018-09-14T05:39:38.428Z,9.30
2018-09-14T05:42:06.170Z,9.40
2018-09-14T05:44:34.011Z,9.40
2018-09-14T05:47:02.270Z,9.50
2018-09-14T05:49:31.059Z,9.50
2018-09-14T05:51:59.486Z,9.50
2018-09-14T05:54:28.083Z,9.60
2018-09-14T05:56:58.636Z,9.70
2018-09-14T05:59:27.510Z,9.80
2018-09-14T06:01:56.943Z,10.00
2018-09-14T06:04:25.837Z,10.10
2018-09-14T06:06:54.411Z,10.20
2018-09-14T06:09:26.867Z,10.20
2018-09-14T06:11:55.323Z,10.30
2018-09-14T06:14:23.768Z,10.30
2018-09-14T06:17:03.716Z,10.30
2018-09-14T06:19:34.450Z,10.50
2018-09-14T06:25:23.100Z,10.70
2018-09-14T06:27:55.475Z,10.80
2018-09-14T06:30:30.620Z,10.80
2018-09-14T06:33:06.462Z,10.80
2018-09-14T06:35:35.561Z,10.90
2018-09-14T06:41:02.398Z,11.00
2018-09-14T06:43:34.277Z,11.00
2018-09-14T06:49:13.610Z,11.10
2018-09-14T06:51:42.505Z,11.30
2018-09-14T06:54:15.057Z,11.60
2018-09-14T06:57:02.227Z,11.90
2018-09-14T07:02:32.238Z,12.70
2018-09-14T07:05:05.203Z,12.80
2018-09-14T07:07:38.280Z,13.00
2018-09-14T07:10:08.518Z,13.40
2018-09-14T07:13:04.774Z,13.80
2018-09-14T07:15:43.316Z,14.00
2018-09-14T07:18:14.022Z,14.30
2018-09-14T07:20:46.599Z,14.20
2018-09-14T07:27:32.529Z,14.20
2018-09-14T07:30:06.809Z,14.00
2018-09-14T07:35:54.832Z,13.90
2018-09-14T07:38:24.930Z,13.80
2018-09-14T07:44:21.928Z,13.50
2018-09-14T07:53:02.534Z,13.50
2018-09-14T08:00:11.169Z,13.30
2018-09-14T08:02:42.074Z,13.50
2018-09-14T08:06:15.759Z,13.40
2018-09-14T08:08:45.903Z,13.40
2018-09-14T08:11:38.028Z,13.40
2018-09-14T08:14:14.800Z,13.40
2018-09-14T08:16:44.310Z,13.30
2018-09-14T08:19:12.980Z,13.30
2018-09-14T08:30:42.184Z,13.70
2018-09-14T08:33:11.091Z,14.00
2018-09-14T08:35:40.103Z,14.10
2018-09-14T08:38:14.932Z,14.00
2018-09-14T08:40:44.133Z,13.90
2018-09-14T08:43:13.436Z,13.70
2018-09-14T09:05:16.908Z,13.50
2018-09-14T09:12:12.512Z,14.10
2018-09-14T09:16:48.222Z,14.30
2018-09-14T09:22:10.821Z,14.20
2018-09-14T09:24:40.432Z,14.10
2018-09-14T09:27:09.615Z,13.90
2018-09-14T09:29:47.737Z,14.00
2018-09-14T09:39:37.706Z,14.40
2018-09-14T09:42:06.281Z,14.50
2018-09-14T09:44:37.418Z,14.60
2018-09-14T09:47:07.596Z,14.50
2018-09-14T09:49:36.953Z,14.50
2018-09-14T09:52:06.664Z,14.30
2018-09-14T09:54:42.411Z,14.30
2018-09-14T09:57:13.148Z,14.30
2018-09-14T10:02:50.483Z,14.30
2018-09-14T10:05:48.087Z,14.20
2018-09-14T10:14:23.947Z,14.70
2018-09-14T10:16:52.947Z,14.60
2018-09-14T10:19:21.836Z,14.40
2018-09-14T10:22:04.113Z,14.60
2018-09-14T10:24:45.720Z,14.70
2018-09-14T10:27:14.717Z,14.90
2018-09-14T10:29:43.593Z,14.90
2018-09-14T10:36:41.976Z,14.90
2018-09-14T10:39:20.850Z,14.90
2018-09-14T10:41:51.708Z,14.80
2018-09-14T10:44:26.397Z,14.80
2018-09-14T10:47:00.343Z,14.60
2018-09-14T10:49:37.424Z,14.40
2018-09-14T11:21:30.538Z,16.00
2018-09-14T11:36:27.076Z,15.90
2018-09-14T11:43:15.077Z,15.90
2018-09-14T11:50:00.827Z,16.00
2018-09-14T11:52:34.001Z,16.20
2018-09-14T11:55:02.693Z,16.20
2018-09-14T11:57:34.352Z,16.40
2018-09-14T12:03:23.834Z,16.40
2018-09-14T12:05:53.035Z,16.10
2018-09-14T12:09:57.711Z,15.90
2018-09-14T12:12:28.336Z,15.80
2018-09-14T12:14:57.855Z,15.50
2018-09-14T12:26:42.381Z,16.10
2018-09-14T12:29:21.327Z,16.50
2018-09-14T12:40:29.574Z,16.70
2018-09-14T12:43:37.354Z,16.90
2018-09-14T13:05:22.712Z,17.10
2018-09-14T13:07:51.708Z,17.10
2018-09-14T13:17:21.417Z,16.90
2018-09-14T13:24:45.111Z,16.90
2018-09-14T13:27:22.704Z,16.80
2018-09-14T13:29:51.702Z,16.70
2018-09-14T14:13:05.839Z,16.60
2018-09-14T14:35:49.582Z,16.70
2018-09-14T15:03:47.989Z,15.90
2018-09-14T15:06:32.539Z,15.80
2018-09-14T15:13:40.047Z,15.80
2018-09-14T15:19:11.364Z,15.70
2018-09-14T15:21:48.905Z,15.80
2018-09-14T16:02:08.516Z,15.30
2018-09-14T16:04:45.152Z,14.30
2018-09-14T16:07:14.320Z,14.20
2018-09-14T16:09:45.610Z,14.00
2018-09-14T16:15:29.245Z,13.80
2018-09-14T16:18:07.260Z,13.80
2018-09-14T16:20:40.642Z,13.80
2018-09-14T16:23:14.014Z,13.70
2018-09-14T16:25:44.441Z,13.60
2018-09-14T16:31:26.749Z,13.60
2018-09-14T16:33:58.021Z,13.50
2018-09-14T16:36:27.428Z,13.50
2018-09-14T16:38:56.321Z,13.50
2018-09-14T16:41:26.546Z,13.40
2018-09-14T16:44:03.822Z,13.40
2018-09-14T16:46:32.930Z,13.40
2018-09-14T16:49:06.179Z,13.40
2018-09-14T16:51:53.239Z,13.40
2018-09-14T16:54:23.961Z,13.40
2018-09-14T16:57:12.028Z,13.30
2018-09-14T16:59:41.408Z,13.30
2018-09-14T17:02:12.448Z,13.20
2018-09-14T17:04:42.161Z,13.20
2018-09-14T17:07:11.364Z,13.10
2018-09-14T17:09:43.634Z,13.10
2018-09-14T17:12:13.606Z,13.10
2018-09-14T17:14:49.200Z,13.10
2018-09-14T17:17:25.053Z,13.20
2018-09-14T17:19:55.245Z,13.20
2018-09-14T17:22:25.528Z,13.10
2018-09-14T17:24:54.194Z,13.20
2018-09-14T17:27:25.799Z,13.10
2018-09-14T17:34:20.096Z,13.10
2018-09-14T17:36:57.585Z,13.00
2018-09-14T17:39:26.761Z,12.90
2018-09-14T17:42:00.386Z,12.70
2018-09-14T17:44:31.861Z,12.60
2018-09-14T17:47:26.000Z,12.50
2018-09-14T17:49:56.235Z,12.40
2018-09-14T17:52:25.055Z,12.30
2018-09-14T17:54:53.924Z,12.30
2018-09-14T17:57:24.530Z,12.10
2018-09-14T17:59:56.519Z,12.10
2018-09-14T18:02:25.311Z,12.10
2018-09-14T18:04:56.354Z,12.00
2018-09-14T18:07:27.711Z,11.90
2018-09-14T18:12:49.438Z,11.90
2018-09-14T18:15:23.144Z,11.90
2018-09-14T18:17:59.406Z,11.90
2018-09-14T18:20:28.196Z,11.90
2018-09-14T18:22:58.013Z,11.80
2018-09-14T18:25:28.295Z,11.90
2018-09-14T18:27:59.379Z,11.90
2018-09-14T18:30:28.895Z,11.90
2018-09-14T18:33:03.210Z,11.90
2018-09-14T18:35:36.714Z,11.90
2018-09-14T18:38:09.390Z,11.90
2018-09-14T18:40:41.733Z,11.90
2018-09-14T18:43:25.086Z,11.90
2018-09-14T18:45:54.084Z,11.90
2018-09-14T18:48:23.878Z,11.80
2018-09-14T18:50:59.753Z,11.80
2018-09-14T18:53:28.648Z,11.80
2018-09-14T18:56:02.657Z,11.80
2018-09-14T18:58:32.677Z,11.90
2018-09-14T19:01:13.749Z,11.80
2018-09-14T19:03:43.565Z,11.80
2018-09-14T19:06:15.120Z,11.80
2018-09-14T19:08:48.209Z,11.80
2018-09-14T19:11:47.413Z,11.80
2018-09-14T19:14:16.391Z,11.70
2018-09-14T19:16:45.285Z,11.80
2018-09-14T19:19:14.187Z,11.80
2018-09-14T19:21:43.463Z,11.90
2018-09-14T19:24:14.841Z,11.90
2018-09-14T19:30:17.789Z,11.80
2018-09-14T19:32:46.498Z,11.70
2018-09-14T19:35:17.537Z,11.80
2018-09-14T19:37:50.875Z,11.80
2018-09-14T19:40:20.320Z,11.80
2018-09-14T19:42:49.224Z,11.80
2018-09-14T19:45:19.220Z,11.80
2018-09-14T19:47:49.769Z,11.70
2018-09-14T19:50:19.895Z,11.80
2018-09-14T19:52:48.730Z,11.80
2018-09-14T19:57:54.896Z,11.80
2018-09-14T20:00:25.314Z,11.70
2018-09-14T20:02:53.943Z,11.70
2018-09-14T20:05:22.488Z,11.60
2018-09-14T20:07:52.406Z,11.60
2018-09-14T20:10:22.119Z,11.70
2018-09-14T20:12:53.862Z,11.70
2018-09-14T20:15:22.522Z,11.70
2018-09-14T20:17:51.743Z,11.60
2018-09-14T20:20:20.766Z,11.60
2018-09-14T20:22:50.246Z,11.70
2018-09-14T20:25:39.830Z,11.60
2018-09-14T20:28:09.450Z,11.60
2018-09-14T20:30:49.217Z,11.50
2018-09-14T20:33:18.291Z,11.50
2018-09-14T20:35:47.391Z,11.50
2018-09-14T20:38:15.978Z,11.50
2018-09-14T20:40:45.486Z,11.50
2018-09-14T20:43:21.858Z,11.60
2018-09-14T20:45:51.564Z,11.60
2018-09-14T20:48:20.459Z,11.60
2018-09-14T20:50:50.479Z,11.60
2018-09-14T20:53:19.578Z,11.50
2018-09-14T20:55:48.677Z,11.50
2018-09-14T20:58:17.526Z,11.60
2018-09-14T21:00:46.876Z,11.60
2018-09-14T21:03:19.046Z,11.60
2018-09-14T21:05:48.145Z,11.60
2018-09-14T21:08:17.238Z,11.60
2018-09-14T21:10:46.546Z,11.60
2018-09-14T21:15:49.420Z,11.60
2018-09-14T21:18:19.368Z,11.50
2018-09-14T21:20:51.128Z,11.50
2018-09-14T21:23:20.739Z,11.60
2018-09-14T21:25:51.577Z,11.60
2018-09-14T21:28:20.422Z,11.60
2018-09-14T21:30:52.129Z,11.60
2018-09-14T21:33:21.500Z,11.60
2018-09-14T21:35:51.704Z,11.60
2018-09-14T21:38:20.864Z,11.60
2018-09-14T21:40:50.061Z,11.60
2018-09-14T21:43:18.859Z,11.60
2018-09-14T21:45:47.746Z,11.60
2018-09-14T21:48:22.372Z,11.50
2018-09-14T21:50:56.383Z,11.60
2018-09-14T21:53:37.385Z,11.60
2018-09-14T21:59:07.667Z,11.60
2018-09-14T22:01:37.653Z,11.50
2018-09-14T22:04:07.622Z,11.40
2018-09-14T22:06:42.350Z,11.30
2018-09-14T22:09:19.428Z,11.30
2018-09-14T22:11:51.246Z,11.30
2018-09-14T22:14:21.482Z,11.30
2018-09-14T22:16:50.448Z,11.30
2018-09-14T22:19:19.713Z,11.30
2018-09-14T22:21:49.280Z,11.30
2018-09-14T22:24:18.284Z,11.30
2018-09-14T22:30:06.561Z,11.30
2018-09-14T22:32:51.830Z,11.30
2018-09-14T22:35:20.416Z,11.30
2018-09-14T22:37:50.845Z,11.40
2018-09-14T22:40:19.535Z,11.40
2018-09-14T22:42:48.432Z,11.30
2018-09-14T22:48:19.976Z,11.30
2018-09-14T22:50:48.677Z,11.30
2018-09-14T22:53:24.189Z,11.20
2018-09-14T22:55:52.930Z,11.30
2018-09-14T22:58:22.936Z,11.20
2018-09-14T23:01:05.437Z,11.20
2018-09-14T23:03:34.917Z,11.20
2018-09-14T23:06:03.835Z,11.20
2018-09-14T23:08:52.393Z,11.10
2018-09-14T23:11:20.921Z,11.00
2018-09-14T23:13:49.907Z,11.00
2018-09-14T23:16:19.990Z,10.90
2018-09-14T23:18:48.777Z,10.80
2018-09-14T23:21:17.767Z,10.80
2018-09-14T23:23:45.747Z,10.80
2018-09-14T23:26:16.076Z,10.80
2018-09-14T23:28:43.664Z,10.80
2018-09-14T23:31:11.266Z,10.80
2018-09-14T23:33:39.748Z,10.80
2018-09-14T23:36:08.568Z,10.80
2018-09-14T23:38:39.614Z,10.70
2018-09-14T23:41:07.680Z,10.70
2018-09-14T23:43:35.652Z,10.70
2018-09-14T23:46:03.837Z,10.70
2018-09-14T23:48:31.346Z,10.70
2018-09-14T23:50:59.083Z,10.70
2018-09-14T23:53:26.585Z,10.80
2018-09-14T23:55:54.152Z,10.80
2018-09-14T23:58:21.796Z,10.80
